Weather at İstanbul Atatürk Airport

Public forecast

Using degrees Celsius for public forecast. Weather courtesy of forecast.io.

Current aviation weather report (METAR) for İstanbul Atatürk Airport

2023/02/05 16:50 (retrieved 29 minutes ago)

LTBA 051650Z 36027G42KT 4000 -SHSN BKN010 BKN022 01/M00 Q1015 RMK RWY23 01024G37KT

Aviation forecast (TAF) for İstanbul Atatürk Airport

2023/02/05 12:03 (retrieved 5 hours ago)

TAF LTBA 051040Z 0512/0612 01030G45KT 6000 -SHRASN BKN008 BKN022 BECMG 0517/0520 2000 -SHSN BLSN BKN003 BKN020 TEMPO 0523/0603 0400 SHSN SCT005 FEW018CB BKN022 BECMG 0602/0605 6000 -SHSNRA BKN012 BKN025